createdAt,value
2017-05-07T00:00:27.073Z,1011.4
2017-05-07T00:01:29.912Z,1011.5
2017-05-07T00:02:32.501Z,1011.5
2017-05-07T00:03:34.845Z,1011.6
2017-05-07T00:04:37.680Z,1011.6
2017-05-07T00:05:40.516Z,1011.6
2017-05-07T00:06:43.354Z,1011.6
2017-05-07T00:07:45.996Z,1011.5
2017-05-07T00:08:48.333Z,1011.6
2017-05-07T00:09:51.407Z,1011.6
2017-05-07T00:10:53.748Z,1011.6
2017-05-07T00:11:56.592Z,1011.6
2017-05-07T00:12:59.731Z,1011.6
2017-05-07T00:14:02.068Z,1011.6
2017-05-07T00:15:04.907Z,1011.6
2017-05-07T00:17:10.150Z,1011.6
2017-05-07T00:18:13.241Z,1011.5
2017-05-07T00:19:15.439Z,1011.5
2017-05-07T00:20:18.284Z,1011.6
2017-05-07T00:21:21.125Z,1011.5
2017-05-07T00:22:23.465Z,1011.5
2017-05-07T00:23:26.608Z,1011.5
2017-05-07T00:24:28.944Z,1011.5
2017-05-07T00:25:31.784Z,1011.5
2017-05-07T00:26:34.626Z,1011.5
2017-05-07T00:27:36.966Z,1011.5
2017-05-07T00:28:40.057Z,1011.5
2017-05-07T00:29:42.394Z,1011.5
2017-05-07T00:30:45.236Z,1011.5
2017-05-07T00:31:47.940Z,1011.5
2017-05-07T00:32:50.644Z,1011.5
2017-05-07T00:33:53.798Z,1011.6
2017-05-07T00:34:56.134Z,1011.5
2017-05-07T00:35:58.977Z,1011.6
2017-05-07T00:37:01.344Z,1011.6
2017-05-07T00:38:04.193Z,1011.6
2017-05-07T00:39:07.340Z,1011.6
2017-05-07T00:40:09.543Z,1011.6
2017-05-07T00:41:12.108Z,1011.6
2017-05-07T00:42:14.813Z,1011.6
2017-05-07T00:43:17.654Z,1011.6
2017-05-07T00:44:20.749Z,1011.6
2017-05-07T00:45:23.085Z,1011.6
2017-05-07T00:46:25.472Z,1011.6
2017-05-07T00:47:28.310Z,1011.6
2017-05-07T00:48:31.160Z,1011.6
2017-05-07T00:49:34.342Z,1011.6
2017-05-07T00:50:36.677Z,1011.6
2017-05-07T00:51:39.249Z,1011.6
2017-05-07T00:52:42.128Z,1011.6
2017-05-07T00:53:44.474Z,1011.6
2017-05-07T00:54:47.566Z,1011.5
2017-05-07T00:55:49.910Z,1011.5
2017-05-07T00:56:52.756Z,1011.5
2017-05-07T00:57:55.597Z,1011.5
2017-05-07T00:58:57.939Z,1011.6
2017-05-07T01:00:01.084Z,1011.5
2017-05-07T01:01:03.425Z,1011.6
2017-05-07T01:02:06.269Z,1011.6
2017-05-07T01:03:08.978Z,1011.6
2017-05-07T01:04:11.316Z,1011.6
2017-05-07T01:05:14.330Z,1011.6
2017-05-07T01:06:16.661Z,1011.6
2017-05-07T01:07:19.501Z,1011.6
2017-05-07T01:08:22.348Z,1011.6
2017-05-07T01:09:25.208Z,1011.6
2017-05-07T01:10:27.804Z,1011.6
2017-05-07T01:11:30.138Z,1011.6
2017-05-07T01:12:32.979Z,1011.6
2017-05-07T01:13:35.824Z,1011.6
2017-05-07T01:14:38.203Z,1011.6
2017-05-07T01:15:41.355Z,1011.6
2017-05-07T01:16:43.695Z,1011.6
2017-05-07T01:17:46.535Z,1011.6
2017-05-07T01:18:49.380Z,1011.6
2017-05-07T01:19:52.082Z,1011.7
2017-05-07T01:20:54.667Z,1011.6
2017-05-07T01:21:57.506Z,1011.6
2017-05-07T01:22:59.842Z,1011.7
2017-05-07T01:24:02.688Z,1011.7
2017-05-07T01:25:05.581Z,1011.6
2017-05-07T01:26:08.216Z,1011.7
2017-05-07T01:27:10.933Z,1011.7
2017-05-07T01:28:13.508Z,1011.7
2017-05-07T01:29:16.352Z,1011.6
2017-05-07T01:30:18.697Z,1011.7
2017-05-07T01:31:21.842Z,1011.6
2017-05-07T01:32:24.049Z,1011.6
2017-05-07T01:33:26.889Z,1011.6
2017-05-07T01:35:32.145Z,1011.6
2017-05-07T01:36:35.158Z,1011.6
2017-05-07T01:37:37.529Z,1011.6
2017-05-07T01:38:40.233Z,1011.6
2017-05-07T01:39:43.073Z,1011.5
2017-05-07T01:40:45.910Z,1011.5
2017-05-07T01:41:48.508Z,1011.5
2017-05-07T01:42:51.355Z,1011.5
2017-05-07T01:43:53.701Z,1011.5
2017-05-07T01:44:56.543Z,1011.5
2017-05-07T01:45:59.387Z,1011.5
2017-05-07T01:47:02.342Z,1011.5
2017-05-07T01:48:04.682Z,1011.5
2017-05-07T01:49:07.027Z,1011.5
2017-05-07T01:50:09.738Z,1011.5
2017-05-07T01:51:12.578Z,1011.5
2017-05-07T01:52:15.649Z,1011.5
2017-05-07T01:53:17.985Z,1011.5
2017-05-07T01:54:20.833Z,1011.6
2017-05-07T01:55:23.546Z,1011.6
2017-05-07T01:56:25.885Z,1011.6
2017-05-07T01:57:29.035Z,1011.6
2017-05-07T01:58:31.373Z,1011.6
2017-05-07T01:59:34.085Z,1011.6
2017-05-07T02:00:36.793Z,1011.6
2017-05-07T02:01:39.636Z,1011.5
2017-05-07T02:02:42.328Z,1011.5
2017-05-07T02:03:45.168Z,1011.5
2017-05-07T02:05:50.410Z,1011.5
2017-05-07T02:06:53.252Z,1011.6
2017-05-07T02:07:56.112Z,1011.5
2017-05-07T02:08:58.455Z,1011.6
2017-05-07T02:10:01.298Z,1011.6
2017-05-07T02:11:03.638Z,1011.6
2017-05-07T02:12:06.578Z,1011.5
2017-05-07T02:13:09.163Z,1011.5
2017-05-07T02:14:12.001Z,1011.6
2017-05-07T02:15:14.713Z,1011.6
2017-05-07T02:16:17.050Z,1011.5
2017-05-07T02:17:19.894Z,1011.5
2017-05-07T02:19:25.388Z,1011.6
2017-05-07T02:20:28.097Z,1011.5
2017-05-07T02:21:30.437Z,1011.5
2017-05-07T02:22:33.273Z,1011.5
2017-05-07T02:23:36.111Z,1011.5
2017-05-07T02:24:38.806Z,1011.5
2017-05-07T02:25:41.652Z,1011.5
2017-05-07T02:26:43.997Z,1011.6
2017-05-07T02:27:46.841Z,1011.6
2017-05-07T02:28:49.679Z,1011.6
2017-05-07T02:29:52.266Z,1011.5
2017-05-07T02:30:55.108Z,1011.5
2017-05-07T02:31:57.444Z,1011.5
2017-05-07T02:33:00.288Z,1011.5
2017-05-07T02:34:03.124Z,1011.4
2017-05-07T02:35:06.081Z,1011.4
2017-05-07T02:36:08.418Z,1011.5
2017-05-07T02:37:11.126Z,1011.4
2017-05-07T02:38:13.829Z,1011.4
2017-05-07T02:39:16.167Z,1011.5
2017-05-07T02:40:19.309Z,1011.4
2017-05-07T02:41:21.647Z,1011.5
2017-05-07T02:42:24.485Z,1011.5
2017-05-07T02:43:27.326Z,1011.5
2017-05-07T02:44:29.571Z,1011.5
2017-05-07T02:45:32.721Z,1011.5
2017-05-07T02:46:35.059Z,1011.5
2017-05-07T02:47:37.907Z,1011.5
2017-05-07T02:49:43.215Z,1011.5
2017-05-07T02:50:46.310Z,1011.6
2017-05-07T02:51:48.650Z,1011.6
2017-05-07T02:52:51.497Z,1011.6
2017-05-07T02:53:53.844Z,1011.5
2017-05-07T02:54:56.683Z,1011.5
2017-05-07T02:55:59.826Z,1011.6
2017-05-07T02:57:02.167Z,1011.5
2017-05-07T02:58:04.514Z,1011.6
2017-05-07T02:59:07.364Z,1011.5
2017-05-07T03:00:10.075Z,1011.5
2017-05-07T03:01:13.218Z,1011.5
2017-05-07T03:02:15.558Z,1011.6
2017-05-07T03:03:18.401Z,1011.6
2017-05-07T03:04:20.748Z,1011.6
2017-05-07T03:05:23.593Z,1011.5
2017-05-07T03:06:26.647Z,1011.6
2017-05-07T03:08:31.759Z,1011.6
2017-05-07T03:09:34.102Z,1011.6
2017-05-07T03:10:36.944Z,1011.7
2017-05-07T03:11:39.978Z,1011.7
2017-05-07T03:12:42.316Z,1011.7
2017-05-07T03:13:45.204Z,1011.6
2017-05-07T03:14:47.586Z,1011.7
2017-05-07T03:15:50.435Z,1011.7
2017-05-07T03:16:53.621Z,1011.7
2017-05-07T03:18:58.370Z,1011.7
2017-05-07T03:20:01.076Z,1011.7
2017-05-07T03:21:03.920Z,1011.7
2017-05-07T03:22:06.942Z,1011.7
2017-05-07T03:23:09.206Z,1011.7
2017-05-07T03:24:12.048Z,1011.8
2017-05-07T03:25:14.393Z,1011.8
2017-05-07T03:26:17.304Z,1011.7
2017-05-07T03:27:20.396Z,1011.8
2017-05-07T03:28:22.740Z,1011.8
2017-05-07T03:29:25.088Z,1011.7
2017-05-07T03:30:27.928Z,1011.8
2017-05-07T03:31:30.675Z,1011.7
2017-05-07T03:32:33.641Z,1011.7
2017-05-07T03:33:35.982Z,1011.7
2017-05-07T03:34:38.691Z,1011.7
2017-05-07T03:35:41.547Z,1011.6
2017-05-07T03:36:43.888Z,1011.7
2017-05-07T03:37:47.034Z,1011.7
2017-05-07T03:38:49.370Z,1011.7
2017-05-07T03:39:52.211Z,1011.6
2017-05-07T03:40:55.055Z,1011.7
2017-05-07T03:41:57.398Z,1011.6
2017-05-07T03:43:00.497Z,1011.6
2017-05-07T03:44:02.837Z,1011.6
2017-05-07T03:45:05.688Z,1011.6
2017-05-07T03:46:08.030Z,1011.6
2017-05-07T03:47:10.736Z,1011.6
2017-05-07T03:48:13.880Z,1011.7
2017-05-07T03:49:16.225Z,1011.6
2017-05-07T03:50:19.070Z,1011.6
2017-05-07T03:51:21.912Z,1011.6
2017-05-07T03:52:24.255Z,1011.6
2017-05-07T03:53:27.396Z,1011.6
2017-05-07T03:54:29.732Z,1011.6
2017-05-07T03:55:32.437Z,1011.6
2017-05-07T03:56:35.276Z,1011.6
2017-05-07T03:58:40.775Z,1011.6
2017-05-07T03:59:43.126Z,1011.6
2017-05-07T04:00:45.967Z,1011.7
2017-05-07T04:01:48.309Z,1011.7
2017-05-07T04:02:51.159Z,1011.7
2017-05-07T04:03:54.256Z,1011.7
2017-05-07T04:04:56.590Z,1011.7
2017-05-07T04:05:59.438Z,1011.7
2017-05-07T04:07:01.777Z,1011.7
2017-05-07T04:08:04.620Z,1011.7
2017-05-07T04:09:07.579Z,1011.7
2017-05-07T04:10:09.918Z,1011.7
2017-05-07T04:11:12.626Z,1011.7
2017-05-07T04:12:15.206Z,1011.7
2017-05-07T04:13:18.049Z,1011.7
2017-05-07T04:14:21.005Z,1011.7
2017-05-07T04:15:23.344Z,1011.7
2017-05-07T04:16:26.187Z,1011.7
2017-05-07T04:17:28.891Z,1011.7
2017-05-07T04:18:31.234Z,1011.7
2017-05-07T04:19:34.247Z,1011.7
2017-05-07T04:20:36.587Z,1011.7
2017-05-07T04:21:39.670Z,1011.7
2017-05-07T04:22:42.013Z,1011.7
2017-05-07T04:23:44.859Z,1011.7
2017-05-07T04:24:47.952Z,1011.7
2017-05-07T04:25:50.290Z,1011.7
2017-05-07T04:26:52.635Z,1011.7
2017-05-07T04:27:55.479Z,1011.7
2017-05-07T04:28:58.332Z,1011.7
2017-05-07T04:30:01.419Z,1011.7
2017-05-07T04:31:03.759Z,1011.7
2017-05-07T04:32:06.104Z,1011.7
2017-05-07T04:33:08.844Z,1011.7
2017-05-07T04:34:11.691Z,1011.7
2017-05-07T04:35:14.788Z,1011.7
2017-05-07T04:36:17.127Z,1011.7
2017-05-07T04:37:19.464Z,1011.8
2017-05-07T04:38:22.305Z,1011.8
2017-05-07T04:39:25.210Z,1011.7
2017-05-07T04:40:28.229Z,1011.8
2017-05-07T04:41:30.569Z,1011.8
2017-05-07T04:42:33.280Z,1011.9
2017-05-07T04:43:35.630Z,1011.9
2017-05-07T04:44:38.473Z,1011.9
2017-05-07T04:45:41.620Z,1011.9
2017-05-07T04:46:43.961Z,1011.9
2017-05-07T04:47:46.310Z,1011.9
2017-05-07T04:48:49.151Z,1012
2017-05-07T04:49:51.995Z,1012
2017-05-07T04:50:54.955Z,1012
2017-05-07T04:51:57.294Z,1012
2017-05-07T04:53:00.137Z,1012
2017-05-07T04:54:02.518Z,1012
2017-05-07T04:55:05.363Z,1012.1
2017-05-07T04:56:07.963Z,1012
2017-05-07T04:57:10.671Z,1012
2017-05-07T04:58:13.525Z,1012.1
2017-05-07T04:59:15.875Z,1012.1
2017-05-07T05:00:18.711Z,1012.1
2017-05-07T05:02:24.204Z,1012.1
2017-05-07T05:03:26.918Z,1012.2
2017-05-07T05:04:29.252Z,1012.2
2017-05-07T05:05:32.102Z,1012.2
2017-05-07T05:06:34.956Z,1012.2
2017-05-07T05:07:37.920Z,1012.1
2017-05-07T05:08:40.258Z,1012.2
2017-05-07T05:09:42.596Z,1012.2
2017-05-07T05:10:45.441Z,1012.2
2017-05-07T05:11:48.285Z,1012.2
2017-05-07T05:13:53.841Z,1012.3
2017-05-07T05:14:56.206Z,1012.2
2017-05-07T05:15:59.071Z,1012.3
2017-05-07T05:17:01.414Z,1012.3
2017-05-07T05:18:04.255Z,1012.3
2017-05-07T05:19:07.401Z,1012.3
2017-05-07T05:20:09.602Z,1012.3
2017-05-07T05:21:12.507Z,1012.3
2017-05-07T05:22:14.848Z,1012.3
2017-05-07T05:23:17.693Z,1012.3
2017-05-07T05:25:23.269Z,1012.4
2017-05-07T05:26:25.613Z,1012.4
2017-05-07T05:27:28.458Z,1012.4
2017-05-07T05:28:31.303Z,1012.3
2017-05-07T05:29:33.650Z,1012.3
2017-05-07T05:30:36.664Z,1012.3
2017-05-07T05:31:39.013Z,1012.4
2017-05-07T05:32:41.858Z,1012.4
2017-05-07T05:33:44.699Z,1012.4
2017-05-07T05:34:47.040Z,1012.4
2017-05-07T05:35:50.193Z,1012.5
2017-05-07T05:36:52.531Z,1012.4
2017-05-07T05:37:55.436Z,1012.4
2017-05-07T05:38:58.281Z,1012.4
2017-05-07T05:40:00.625Z,1012.4
2017-05-07T05:41:03.722Z,1012.4
2017-05-07T05:42:06.062Z,1012.5
2017-05-07T05:43:08.965Z,1012.5
2017-05-07T05:44:11.372Z,1012.5
2017-05-07T05:45:13.947Z,1012.5
2017-05-07T05:46:17.091Z,1012.5
2017-05-07T05:47:19.434Z,1012.5
2017-05-07T05:48:22.277Z,1012.5
2017-05-07T05:49:25.122Z,1012.5
2017-05-07T05:50:27.459Z,1012.5
2017-05-07T05:51:30.547Z,1012.5
2017-05-07T05:52:32.891Z,1012.5
2017-05-07T05:53:35.609Z,1012.5
2017-05-07T05:54:38.450Z,1012.5
2017-05-07T05:55:41.296Z,1012.5
2017-05-07T05:56:43.762Z,1012.6
2017-05-07T05:57:46.605Z,1012.5
2017-05-07T05:58:48.940Z,1012.6
2017-05-07T05:59:51.839Z,1012.6
2017-05-07T06:00:54.551Z,1012.6
2017-05-07T06:01:57.696Z,1012.6
2017-05-07T06:03:00.038Z,1012.6
2017-05-07T06:04:02.435Z,1012.6
2017-05-07T06:05:05.286Z,1012.6
2017-05-07T06:07:10.785Z,1012.6
2017-05-07T06:08:13.626Z,1012.6
2017-05-07T06:09:16.200Z,1012.5
2017-05-07T06:10:18.543Z,1012.6
2017-05-07T06:11:21.391Z,1012.6
2017-05-07T06:12:24.488Z,1012.6
2017-05-07T06:13:26.826Z,1012.6
2017-05-07T06:14:29.667Z,1012.6
2017-05-07T06:15:32.008Z,1012.6
2017-05-07T06:16:34.848Z,1012.6
2017-05-07T06:17:37.991Z,1012.6
2017-05-07T06:18:40.198Z,1012.6
2017-05-07T06:19:42.906Z,1012.6
2017-05-07T06:20:45.745Z,1012.6
2017-05-07T06:21:48.591Z,1012.6
2017-05-07T06:22:51.234Z,1012.6
2017-05-07T06:23:53.571Z,1012.6
2017-05-07T06:24:56.410Z,1012.6
2017-05-07T06:25:59.256Z,1012.6
2017-05-07T06:28:04.816Z,1012.6
2017-05-07T06:29:07.161Z,1012.6
2017-05-07T06:30:09.736Z,1012.6
2017-05-07T06:31:12.631Z,1012.6
2017-05-07T06:32:15.340Z,1012.6
2017-05-07T06:33:18.436Z,1012.6
2017-05-07T06:34:20.782Z,1012.5
2017-05-07T06:35:23.635Z,1012.5
2017-05-07T06:36:25.972Z,1012.5
2017-05-07T06:37:28.813Z,1012.6
2017-05-07T06:38:31.956Z,1012.6
2017-05-07T06:39:34.365Z,1012.6
2017-05-07T06:40:37.205Z,1012.6
2017-05-07T06:41:39.547Z,1012.6
2017-05-07T06:42:42.399Z,1012.6
2017-05-07T06:43:45.545Z,1012.6
2017-05-07T06:44:47.887Z,1012.6
2017-05-07T06:45:50.786Z,1012.6
2017-05-07T06:46:53.133Z,1012.6
2017-05-07T06:47:55.835Z,1012.6
2017-05-07T06:48:58.982Z,1012.5
2017-05-07T06:50:01.327Z,1012.5
2017-05-07T06:51:04.171Z,1012.5
2017-05-07T06:52:07.019Z,1012.5
2017-05-07T06:53:09.725Z,1012.5
2017-05-07T06:54:12.685Z,1012.5
2017-05-07T06:55:14.891Z,1012.5
2017-05-07T06:56:17.736Z,1012.5
2017-05-07T06:57:20.648Z,1012.6
2017-05-07T06:58:23.034Z,1012.6
2017-05-07T06:59:26.181Z,1012.6
2017-05-07T07:00:28.530Z,1012.6
2017-05-07T07:01:31.374Z,1012.6
2017-05-07T07:02:34.214Z,1012.6
2017-05-07T07:03:37.055Z,1012.6
2017-05-07T07:04:40.011Z,1012.7
2017-05-07T07:05:42.216Z,1012.7
2017-05-07T07:06:45.065Z,1012.6
2017-05-07T07:07:47.913Z,1012.6
2017-05-07T07:08:50.263Z,1012.6
2017-05-07T07:09:53.358Z,1012.6
2017-05-07T07:10:56.200Z,1012.7
2017-05-07T07:11:58.541Z,1012.7
2017-05-07T07:13:01.443Z,1012.7
2017-05-07T07:14:04.294Z,1012.7
2017-05-07T07:15:07.387Z,1012.7
2017-05-07T07:16:09.725Z,1012.6
2017-05-07T07:17:12.570Z,1012.6
2017-05-07T07:18:15.277Z,1012.6
2017-05-07T07:19:17.984Z,1012.6
2017-05-07T07:20:20.945Z,1012.6
2017-05-07T07:21:23.322Z,1012.7
2017-05-07T07:22:26.169Z,1012.7
2017-05-07T07:23:28.521Z,1012.6
2017-05-07T07:24:31.430Z,1012.7
2017-05-07T07:25:34.528Z,1012.7
2017-05-07T07:26:36.869Z,1012.7
2017-05-07T07:27:39.581Z,1012.7
2017-05-07T07:28:42.430Z,1012.7
2017-05-07T07:29:45.137Z,1012.7
2017-05-07T07:30:48.233Z,1012.6
2017-05-07T07:31:50.576Z,1012.7
2017-05-07T07:32:53.419Z,1012.7
2017-05-07T07:33:56.260Z,1012.7
2017-05-07T07:34:59.116Z,1012.7
2017-05-07T07:36:02.076Z,1012.7
2017-05-07T07:37:04.415Z,1012.7
2017-05-07T07:38:07.259Z,1012.7
2017-05-07T07:39:09.963Z,1012.7
2017-05-07T07:40:12.811Z,1012.7
2017-05-07T07:41:15.401Z,1012.7
2017-05-07T07:42:18.251Z,1012.7
2017-05-07T07:43:20.591Z,1012.8
2017-05-07T07:44:23.492Z,1012.8
2017-05-07T07:45:26.389Z,1012.8
2017-05-07T07:46:29.348Z,1012.8
2017-05-07T07:47:31.724Z,1012.8
2017-05-07T07:48:34.569Z,1012.8
2017-05-07T07:49:37.417Z,1012.8
2017-05-07T07:50:40.265Z,1012.8
2017-05-07T07:51:43.259Z,1012.8
2017-05-07T07:52:45.607Z,1012.8
2017-05-07T07:53:48.448Z,1012.8
2017-05-07T07:54:51.291Z,1012.8
2017-05-07T07:55:53.634Z,1012.8
2017-05-07T07:56:56.729Z,1012.8
2017-05-07T07:57:59.072Z,1012.8
2017-05-07T07:59:01.913Z,1012.8
2017-05-07T08:00:04.755Z,1012.8
2017-05-07T08:01:07.460Z,1012.8
2017-05-07T08:02:10.788Z,1012.8
2017-05-07T08:03:13.128Z,1012.8
2017-05-07T08:04:15.894Z,1012.8
2017-05-07T08:05:18.741Z,1012.8
2017-05-07T08:06:21.084Z,1012.8
2017-05-07T08:07:24.596Z,1012.8
2017-05-07T08:08:26.710Z,1012.8
2017-05-07T08:09:29.422Z,1012.8
2017-05-07T08:10:32.268Z,1012.9
2017-05-07T08:11:35.109Z,1012.8
2017-05-07T08:12:38.120Z,1012.8
2017-05-07T08:13:40.462Z,1012.8
2017-05-07T08:14:43.173Z,1012.9
2017-05-07T08:15:46.017Z,1012.9
2017-05-07T08:16:48.858Z,1012.9
2017-05-07T08:17:52.002Z,1012.9
2017-05-07T08:18:54.346Z,1012.9
2017-05-07T08:19:57.185Z,1013
2017-05-07T08:21:00.026Z,1012.9
2017-05-07T08:22:02.877Z,1013
2017-05-07T08:24:08.243Z,1013
2017-05-07T08:25:10.954Z,1013
2017-05-07T08:26:13.661Z,1013
2017-05-07T08:27:16.560Z,1013
2017-05-07T08:28:18.958Z,1013
2017-05-07T08:29:22.055Z,1013
2017-05-07T08:30:24.895Z,1013
2017-05-07T08:31:27.235Z,1013
2017-05-07T08:32:30.087Z,1013
2017-05-07T08:33:32.932Z,1013
2017-05-07T08:34:36.027Z,1013
2017-05-07T08:35:38.366Z,1013
2017-05-07T08:36:41.215Z,1013
2017-05-07T08:37:43.922Z,1013.1
2017-05-07T08:38:46.819Z,1013
2017-05-07T08:40:52.372Z,1013.1
2017-05-07T08:41:55.079Z,1013
2017-05-07T08:42:57.923Z,1013.1
2017-05-07T08:44:00.264Z,1013
2017-05-07T08:45:03.120Z,1013
2017-05-07T08:46:06.497Z,1013.1
2017-05-07T08:47:08.701Z,1013
2017-05-07T08:48:11.600Z,1013.1
2017-05-07T08:49:14.308Z,1013.1
2017-05-07T08:50:17.012Z,1013.1
2017-05-07T08:51:20.163Z,1013.1
2017-05-07T08:54:27.834Z,1013.2
2017-05-07T08:55:30.679Z,1013.1
2017-05-07T08:56:33.775Z,1013.1
2017-05-07T08:57:36.119Z,1013.1
2017-05-07T08:58:38.962Z,1013.1
2017-05-07T08:59:41.811Z,1013.2
2017-05-07T09:00:44.519Z,1013.1
2017-05-07T09:01:47.673Z,1013.1
2017-05-07T09:02:50.013Z,1013.1
2017-05-07T09:03:52.695Z,1013.1
2017-05-07T09:04:55.413Z,1013.1
2017-05-07T09:05:58.257Z,1013.2
2017-05-07T09:07:01.350Z,1013.2
2017-05-07T09:08:03.689Z,1013.2
2017-05-07T09:09:06.601Z,1013.2
2017-05-07T09:10:09.498Z,1013.2
2017-05-07T09:11:12.210Z,1013.2
2017-05-07T09:12:15.309Z,1013.2
2017-05-07T09:13:17.649Z,1013.1
2017-05-07T09:14:20.357Z,1013.2
2017-05-07T09:15:22.947Z,1013.2
2017-05-07T09:16:25.788Z,1013.2
2017-05-07T09:17:28.944Z,1013.2
2017-05-07T09:18:31.290Z,1013.2
2017-05-07T09:19:34.133Z,1013.2
2017-05-07T09:20:36.972Z,1013.2
2017-05-07T09:22:42.973Z,1013.2
2017-05-07T09:23:45.175Z,1013.2
2017-05-07T09:24:48.017Z,1013.3
2017-05-07T09:25:50.863Z,1013.2
2017-05-07T09:26:53.568Z,1013.3
2017-05-07T09:27:56.664Z,1013.3
2017-05-07T09:28:59.252Z,1013.3
2017-05-07T09:30:01.961Z,1013.3
2017-05-07T09:31:04.671Z,1013.3
2017-05-07T09:32:07.520Z,1013.3
2017-05-07T09:33:10.623Z,1013.3
2017-05-07T09:34:12.831Z,1013.3
2017-05-07T09:35:15.672Z,1013.3
2017-05-07T09:36:18.515Z,1013.3
2017-05-07T09:37:21.355Z,1013.2
2017-05-07T09:38:24.448Z,1013.3
2017-05-07T09:39:26.791Z,1013.3
2017-05-07T09:40:29.499Z,1013.3
2017-05-07T09:41:32.206Z,1013.3
2017-05-07T09:42:35.047Z,1013.4
2017-05-07T09:43:38.143Z,1013.4
2017-05-07T09:44:40.486Z,1013.4
2017-05-07T09:45:43.564Z,1013.4
2017-05-07T09:46:45.953Z,1013.4
2017-05-07T09:47:48.658Z,1013.4
2017-05-07T09:48:51.688Z,1013.4
2017-05-07T09:49:54.535Z,1013.4
2017-05-07T09:51:59.781Z,1013.4
2017-05-07T09:53:02.626Z,1013.4
2017-05-07T09:54:05.647Z,1013.4
2017-05-07T09:55:08.491Z,1013.4
2017-05-07T09:56:10.833Z,1013.4
2017-05-07T09:57:13.545Z,1013.4
2017-05-07T09:58:16.389Z,1013.4
2017-05-07T09:59:19.479Z,1013.4
2017-05-07T10:00:22.327Z,1013.5
2017-05-07T10:01:25.039Z,1013.4
2017-05-07T10:02:27.884Z,1013.5
2017-05-07T10:03:30.594Z,1013.5
2017-05-07T10:04:33.196Z,1013.5
2017-05-07T10:05:36.103Z,1013.5
2017-05-07T10:06:38.943Z,1013.5
2017-05-07T10:07:41.288Z,1013.5
2017-05-07T10:08:44.136Z,1013.4
2017-05-07T10:09:47.228Z,1013.4
2017-05-07T10:10:49.571Z,1013.4
2017-05-07T10:11:52.416Z,1013.5
2017-05-07T10:12:55.322Z,1013.5
2017-05-07T10:13:58.164Z,1013.5
2017-05-07T10:15:01.254Z,1013.5
2017-05-07T10:16:03.653Z,1013.5
2017-05-07T10:17:06.498Z,1013.5
2017-05-07T10:18:09.341Z,1013.4
2017-05-07T10:19:12.195Z,1013.4
2017-05-07T10:20:15.154Z,1013.4
2017-05-07T10:21:17.359Z,1013.4
2017-05-07T10:23:23.117Z,1013.4
2017-05-07T10:24:25.825Z,1013.5
2017-05-07T10:25:28.970Z,1013.4
2017-05-07T10:26:31.240Z,1013.4
2017-05-07T10:27:34.084Z,1013.4
2017-05-07T10:28:36.943Z,1013.4
2017-05-07T10:29:39.785Z,1013.4
2017-05-07T10:30:42.882Z,1013.4
2017-05-07T10:31:45.224Z,1013.4
2017-05-07T10:32:48.065Z,1013.4
2017-05-07T10:33:50.910Z,1013.4
2017-05-07T10:34:53.753Z,1013.4
2017-05-07T10:35:56.906Z,1013.4
2017-05-07T10:36:59.253Z,1013.4
2017-05-07T10:39:05.007Z,1013.5
2017-05-07T10:40:07.351Z,1013.5
2017-05-07T10:41:10.677Z,1013.4
2017-05-07T10:42:12.886Z,1013.4
2017-05-07T10:43:16.098Z,1013.4
2017-05-07T10:44:18.472Z,1013.4
2017-05-07T10:45:21.316Z,1013.4
2017-05-07T10:46:24.457Z,1013.4
2017-05-07T10:47:27.164Z,1013.4
2017-05-07T10:48:30.010Z,1013.4
2017-05-07T10:49:32.348Z,1013.4
2017-05-07T10:50:35.192Z,1013.4
2017-05-07T10:51:38.176Z,1013.4
2017-05-07T10:52:40.914Z,1013.4
2017-05-07T10:53:43.641Z,1013.4
2017-05-07T10:54:46.485Z,1013.4
2017-05-07T10:55:49.332Z,1013.4
2017-05-07T10:57:54.887Z,1013.4
2017-05-07T10:58:57.729Z,1013.4
2017-05-07T11:00:00.571Z,1013.4
2017-05-07T11:01:02.912Z,1013.4
2017-05-07T11:02:05.756Z,1013.4
2017-05-07T11:03:08.848Z,1013.3
2017-05-07T11:04:11.559Z,1013.3
2017-05-07T11:05:14.273Z,1013.3
2017-05-07T11:06:17.114Z,1013.4
2017-05-07T11:07:19.955Z,1013.4
2017-05-07T11:08:22.969Z,1013.3
2017-05-07T11:09:25.306Z,1013.4
2017-05-07T11:10:28.182Z,1013.3
2017-05-07T11:11:31.027Z,1013.4
2017-05-07T11:12:33.867Z,1013.4
2017-05-07T11:13:36.515Z,1013.3
2017-05-07T11:14:39.358Z,1013.3
2017-05-07T11:15:42.203Z,1013.3
2017-05-07T11:16:44.911Z,1013.3
2017-05-07T11:17:47.756Z,1013.3
2017-05-07T11:18:50.403Z,1013.3
2017-05-07T11:19:53.246Z,1013.3
2017-05-07T11:20:56.087Z,1013.2
2017-05-07T11:21:58.424Z,1013.3
2017-05-07T11:23:01.265Z,1013.3
2017-05-07T11:24:04.411Z,1013.2
2017-05-07T11:25:06.748Z,1013.3
2017-05-07T11:26:09.594Z,1013.2
2017-05-07T11:27:12.440Z,1013.3
2017-05-07T11:28:15.519Z,1013.3
2017-05-07T11:30:21.024Z,1013.3
2017-05-07T11:31:23.730Z,1013.2
2017-05-07T11:32:26.302Z,1013.2
2017-05-07T11:33:29.145Z,1013.3
2017-05-07T11:34:31.986Z,1013.2
2017-05-07T11:35:35.128Z,1013.2
2017-05-07T11:36:37.473Z,1013.2
2017-05-07T11:37:40.314Z,1013.2
2017-05-07T11:38:43.153Z,1013.1
2017-05-07T11:39:45.999Z,1013.2
2017-05-07T11:40:49.145Z,1013.2
2017-05-07T11:41:51.483Z,1013.1
2017-05-07T11:42:54.371Z,1013.1
2017-05-07T11:43:57.087Z,1013.1
2017-05-07T11:44:59.936Z,1013.1
2017-05-07T11:46:03.040Z,1013.2
2017-05-07T11:47:05.379Z,1013.2
2017-05-07T11:48:08.222Z,1013.1
2017-05-07T11:49:11.063Z,1013.1
2017-05-07T11:50:13.776Z,1013.1
2017-05-07T11:51:16.872Z,1013.1
2017-05-07T11:53:22.123Z,1013.1
2017-05-07T11:54:24.969Z,1013.1
2017-05-07T11:55:27.684Z,1013.1
2017-05-07T11:56:30.701Z,1013.1
2017-05-07T11:57:33.043Z,1013.1
2017-05-07T11:58:35.890Z,1013
2017-05-07T11:59:38.727Z,1012.9
2017-05-07T12:00:41.572Z,1013
2017-05-07T12:01:44.716Z,1013
2017-05-07T12:02:47.060Z,1013
2017-05-07T12:03:49.908Z,1012.9
2017-05-07T12:04:52.758Z,1012.9
2017-05-07T12:06:58.758Z,1012.9
2017-05-07T12:08:01.097Z,1012.9
2017-05-07T12:09:03.940Z,1013
2017-05-07T12:10:06.782Z,1012.9
2017-05-07T12:11:09.621Z,1013
2017-05-07T12:12:12.447Z,1012.9
2017-05-07T12:13:15.154Z,1012.9
2017-05-07T12:14:18.002Z,1013
2017-05-07T12:15:20.714Z,1013
2017-05-07T12:16:23.557Z,1012.9
2017-05-07T12:17:26.518Z,1012.9
2017-05-07T12:18:29.364Z,1012.9
2017-05-07T12:19:31.705Z,1012.9
2017-05-07T12:20:34.545Z,1012.9
2017-05-07T12:21:37.311Z,1012.9
2017-05-07T12:22:40.457Z,1012.9
2017-05-07T12:23:43.302Z,1013
2017-05-07T12:24:46.144Z,1012.9
2017-05-07T12:25:48.550Z,1012.9
2017-05-07T12:26:51.391Z,1013
2017-05-07T12:27:54.491Z,1013
2017-05-07T12:28:57.334Z,1012.9
2017-05-07T12:29:59.675Z,1012.9
2017-05-07T12:31:02.528Z,1012.9
2017-05-07T12:32:05.371Z,1012.9
2017-05-07T12:33:08.331Z,1012.9
2017-05-07T12:34:11.174Z,1012.9
2017-05-07T12:35:14.053Z,1013
2017-05-07T12:36:16.902Z,1012.9
2017-05-07T12:37:19.241Z,1012.9
2017-05-07T12:38:22.630Z,1012.9
2017-05-07T12:39:24.970Z,1012.9
2017-05-07T12:40:27.813Z,1012.9
2017-05-07T12:41:30.516Z,1012.9
2017-05-07T12:42:33.361Z,1012.9
2017-05-07T12:43:36.462Z,1012.8
2017-05-07T12:44:39.235Z,1012.9
2017-05-07T12:45:42.076Z,1012.9
2017-05-07T12:46:44.421Z,1012.8
2017-05-07T12:47:47.322Z,1012.8
2017-05-07T12:48:50.469Z,1012.8
2017-05-07T12:49:52.806Z,1012.8
2017-05-07T12:50:55.650Z,1012.8
2017-05-07T12:51:58.493Z,1012.8
2017-05-07T12:53:01.336Z,1012.8
2017-05-07T12:54:04.431Z,1012.8
2017-05-07T12:55:06.783Z,1012.8
2017-05-07T12:56:09.631Z,1012.7
2017-05-07T12:57:12.471Z,1012.7
2017-05-07T12:58:15.545Z,1012.7
2017-05-07T12:59:18.638Z,1012.7
2017-05-07T13:00:20.979Z,1012.7
2017-05-07T13:01:23.821Z,1012.7
2017-05-07T13:02:26.662Z,1012.6
2017-05-07T13:03:29.504Z,1012.7
2017-05-07T13:04:32.516Z,1012.6
2017-05-07T13:05:34.853Z,1012.6
2017-05-07T13:06:37.698Z,1012.6
2017-05-07T13:07:40.549Z,1012.7
2017-05-07T13:08:43.389Z,1012.6
2017-05-07T13:09:46.536Z,1012.6
2017-05-07T13:10:48.874Z,1012.6
2017-05-07T13:11:51.726Z,1012.6
2017-05-07T13:12:54.575Z,1012.7
2017-05-07T13:13:57.283Z,1012.7
2017-05-07T13:15:00.434Z,1012.6
2017-05-07T13:17:05.683Z,1012.6
2017-05-07T13:19:11.495Z,1012.7
2017-05-07T13:21:17.282Z,1012.7
2017-05-07T13:22:19.628Z,1012.7
2017-05-07T13:23:22.472Z,1012.7
2017-05-07T13:24:25.559Z,1012.7
2017-05-07T13:25:28.282Z,1012.6
2017-05-07T13:26:31.374Z,1012.6
2017-05-07T13:27:33.770Z,1012.6
2017-05-07T13:28:36.888Z,1012.6
2017-05-07T13:29:39.224Z,1012.6
2017-05-07T13:30:42.065Z,1012.6
2017-05-07T13:31:45.162Z,1012.6
2017-05-07T13:33:50.418Z,1012.6
2017-05-07T13:34:53.257Z,1012.6
2017-05-07T13:35:56.331Z,1012.5